createdAt,value
2018-12-06T00:00:45.066Z,7.00
2018-12-06T00:01:45.211Z,7.30
2018-12-06T00:02:45.649Z,7.00
2018-12-06T00:03:45.557Z,7.30
2018-12-06T00:04:45.703Z,6.90
2018-12-06T00:05:45.850Z,6.50
2018-12-06T00:06:45.997Z,7.20
2018-12-06T00:07:46.145Z,7.80
2018-12-06T00:08:46.288Z,8.20
2018-12-06T00:09:46.432Z,7.60
2018-12-06T00:10:46.576Z,7.20
2018-12-06T00:11:46.719Z,7.50
2018-12-06T00:12:46.872Z,7.70
2018-12-06T00:13:47.017Z,8.30
2018-12-06T00:14:47.164Z,7.00
2018-12-06T00:15:47.310Z,6.60
2018-12-06T00:16:47.455Z,6.50
2018-12-06T00:17:47.601Z,7.60
2018-12-06T00:18:47.746Z,7.20
2018-12-06T00:19:47.890Z,6.20
2018-12-06T00:20:48.039Z,6.20
2018-12-06T00:21:48.184Z,6.20
2018-12-06T00:22:48.327Z,6.50
2018-12-06T00:23:48.475Z,6.50
2018-12-06T00:24:48.625Z,7.00
2018-12-06T00:25:48.767Z,6.40
2018-12-06T00:26:48.913Z,6.00
2018-12-06T00:27:49.060Z,6.10
2018-12-06T00:28:49.203Z,6.20
2018-12-06T00:29:49.350Z,6.60
2018-12-06T00:30:49.491Z,6.70
2018-12-06T00:31:49.637Z,6.80
2018-12-06T00:32:49.782Z,7.10
2018-12-06T00:33:49.928Z,7.10
2018-12-06T00:34:50.074Z,7.00
2018-12-06T00:35:50.220Z,7.30
2018-12-06T00:36:50.363Z,6.70
2018-12-06T00:37:50.508Z,6.70
2018-12-06T00:38:50.653Z,7.30
2018-12-06T00:39:50.801Z,6.30
2018-12-06T00:40:50.945Z,6.80
2018-12-06T00:41:51.086Z,8.20
2018-12-06T00:42:51.238Z,7.10
2018-12-06T00:43:51.387Z,6.90
2018-12-06T00:44:51.528Z,7.40
2018-12-06T00:45:51.673Z,7.80
2018-12-06T00:46:51.820Z,6.30
2018-12-06T00:47:51.965Z,6.80
2018-12-06T00:48:52.112Z,6.40
2018-12-06T00:49:52.256Z,6.00
2018-12-06T00:50:52.402Z,6.10
2018-12-06T00:51:52.546Z,6.70
2018-12-06T00:52:52.691Z,6.50
2018-12-06T00:53:52.838Z,6.20
2018-12-06T00:54:52.983Z,6.10
2018-12-06T00:55:53.128Z,6.10
2018-12-06T00:56:53.274Z,5.50
2018-12-06T00:57:53.419Z,6.30
2018-12-06T00:58:53.566Z,6.50
2018-12-06T00:59:53.712Z,5.70
2018-12-06T01:00:53.856Z,5.50
2018-12-06T01:01:54.002Z,6.00
2018-12-06T01:02:54.147Z,6.30
2018-12-06T01:03:54.292Z,5.80
2018-12-06T01:04:54.441Z,5.60
2018-12-06T01:05:54.582Z,5.50
2018-12-06T01:06:54.730Z,6.80
2018-12-06T01:07:54.876Z,6.10
2018-12-06T01:08:55.019Z,6.30
2018-12-06T01:09:55.164Z,5.80
2018-12-06T01:10:55.309Z,6.10
2018-12-06T01:11:55.456Z,6.00
2018-12-06T01:12:55.599Z,5.50
2018-12-06T01:13:55.751Z,5.70
2018-12-06T01:14:55.892Z,5.50
2018-12-06T01:15:56.036Z,5.60
2018-12-06T01:16:56.183Z,5.50
2018-12-06T01:17:56.405Z,6.00
2018-12-06T01:18:56.472Z,5.60
2018-12-06T01:19:56.616Z,6.10
2018-12-06T01:20:56.765Z,6.10
2018-12-06T01:21:56.908Z,5.60
2018-12-06T01:22:57.052Z,6.00
2018-12-06T01:23:57.200Z,6.00
2018-12-06T01:24:57.342Z,6.10
2018-12-06T01:25:57.486Z,5.70
2018-12-06T01:26:57.631Z,5.80
2018-12-06T01:27:57.782Z,6.40
2018-12-06T01:28:57.929Z,6.50
2018-12-06T01:29:58.067Z,6.10
2018-12-06T01:30:58.220Z,6.30
2018-12-06T01:31:58.365Z,6.70
2018-12-06T01:32:58.509Z,7.10
2018-12-06T01:33:58.657Z,6.80
2018-12-06T01:34:58.799Z,6.90
2018-12-06T01:35:58.942Z,7.20
2018-12-06T01:36:59.089Z,7.40
2018-12-06T01:37:59.235Z,7.70
2018-12-06T01:38:59.382Z,7.50
2018-12-06T01:39:59.527Z,7.50
2018-12-06T01:40:59.677Z,8.50
2018-12-06T01:41:59.821Z,6.80
2018-12-06T01:42:59.969Z,6.70
2018-12-06T01:44:00.116Z,8.00
2018-12-06T01:45:00.263Z,7.50
2018-12-06T01:46:00.408Z,6.30
2018-12-06T01:47:00.552Z,6.40
2018-12-06T01:48:00.697Z,7.40
2018-12-06T01:49:00.842Z,6.40
2018-12-06T01:50:00.987Z,6.50
2018-12-06T01:51:01.135Z,5.70
2018-12-06T01:52:01.278Z,6.20
2018-12-06T01:53:01.424Z,5.70
2018-12-06T01:54:01.570Z,6.10
2018-12-06T01:55:01.715Z,5.90
2018-12-06T01:56:01.861Z,6.10
2018-12-06T01:57:02.005Z,5.80
2018-12-06T01:58:02.152Z,5.20
2018-12-06T01:59:02.295Z,6.40
2018-12-06T02:00:02.442Z,5.60
2018-12-06T02:01:02.587Z,5.80
2018-12-06T02:02:02.731Z,5.90
2018-12-06T02:03:02.876Z,6.20
2018-12-06T02:04:03.023Z,6.70
2018-12-06T02:05:03.166Z,6.40
2018-12-06T02:06:03.310Z,5.80
2018-12-06T02:07:03.462Z,5.90
2018-12-06T02:08:03.606Z,5.70
2018-12-06T02:09:03.750Z,6.30
2018-12-06T02:10:03.897Z,6.00
2018-12-06T02:11:04.040Z,6.50
2018-12-06T02:12:04.188Z,6.00
2018-12-06T02:13:04.336Z,6.40
2018-12-06T02:14:04.480Z,6.40
2018-12-06T02:15:04.628Z,6.70
2018-12-06T02:16:04.774Z,6.20
2018-12-06T02:17:04.921Z,6.90
2018-12-06T02:18:05.065Z,6.70
2018-12-06T02:19:05.210Z,7.00
2018-12-06T02:20:05.362Z,7.40
2018-12-06T02:21:05.502Z,7.40
2018-12-06T02:22:05.648Z,6.80
2018-12-06T02:23:05.794Z,7.40
2018-12-06T02:24:05.944Z,7.90
2018-12-06T02:25:06.092Z,6.80
2018-12-06T02:26:06.238Z,7.10
2018-12-06T02:27:06.382Z,7.90
2018-12-06T02:28:06.529Z,7.50
2018-12-06T02:29:06.676Z,7.40
2018-12-06T02:30:06.821Z,8.70
2018-12-06T02:31:06.968Z,7.90
2018-12-06T02:32:07.112Z,8.10
2018-12-06T02:33:07.260Z,7.70
2018-12-06T02:34:07.405Z,8.10
2018-12-06T02:35:07.675Z,8.20
2018-12-06T02:36:07.697Z,7.80
2018-12-06T02:37:07.849Z,7.80
2018-12-06T02:38:07.984Z,7.90
2018-12-06T02:39:08.140Z,7.80
2018-12-06T02:40:08.278Z,8.70
2018-12-06T02:41:08.423Z,8.40
2018-12-06T02:42:08.569Z,7.70
2018-12-06T02:43:08.715Z,8.00
2018-12-06T02:44:08.859Z,7.70
2018-12-06T02:45:09.007Z,8.00
2018-12-06T02:46:09.152Z,8.30
2018-12-06T02:47:09.297Z,8.10
2018-12-06T02:48:09.445Z,8.40
2018-12-06T02:49:09.594Z,8.10
2018-12-06T02:50:09.738Z,7.80
2018-12-06T02:51:09.882Z,8.10
2018-12-06T02:52:10.030Z,7.20
2018-12-06T02:53:10.177Z,7.90
2018-12-06T02:54:10.319Z,7.80
2018-12-06T02:55:10.467Z,8.70
2018-12-06T02:56:10.618Z,7.70
2018-12-06T02:57:10.757Z,8.10
2018-12-06T02:58:10.903Z,7.60
2018-12-06T02:59:11.050Z,7.10
2018-12-06T03:00:11.195Z,6.70
2018-12-06T03:01:11.342Z,6.90
2018-12-06T03:02:11.489Z,6.50
2018-12-06T03:03:11.636Z,6.50
2018-12-06T03:04:11.784Z,6.00
2018-12-06T03:05:11.925Z,6.30
2018-12-06T03:06:12.072Z,6.20
2018-12-06T03:07:12.217Z,6.20
2018-12-06T03:08:12.363Z,6.20
2018-12-06T03:09:12.508Z,5.80
2018-12-06T03:10:12.657Z,6.30
2018-12-06T03:11:12.804Z,5.60
2018-12-06T03:12:12.947Z,4.90
2018-12-06T03:13:13.101Z,5.50
2018-12-06T03:14:13.245Z,5.60
2018-12-06T03:15:13.391Z,6.10
2018-12-06T03:16:13.531Z,6.50
2018-12-06T03:17:13.677Z,6.40
2018-12-06T03:18:13.825Z,6.00
2018-12-06T03:19:13.969Z,5.90
2018-12-06T03:20:14.119Z,5.70
2018-12-06T03:21:14.256Z,6.60
2018-12-06T03:22:14.421Z,5.80
2018-12-06T03:23:14.577Z,5.90
2018-12-06T03:24:14.713Z,5.80
2018-12-06T03:25:14.861Z,6.20
2018-12-06T03:26:15.002Z,5.50
2018-12-06T03:27:15.149Z,6.20
2018-12-06T03:28:15.297Z,6.30
2018-12-06T03:29:15.446Z,6.30
2018-12-06T03:30:15.591Z,5.90
2018-12-06T03:31:15.739Z,6.10
2018-12-06T03:32:15.889Z,6.20
2018-12-06T03:33:16.029Z,6.10
2018-12-06T03:34:16.174Z,5.60
2018-12-06T03:35:16.321Z,6.40
2018-12-06T03:36:16.466Z,5.80
2018-12-06T03:37:16.615Z,5.70
2018-12-06T03:38:16.761Z,5.80
2018-12-06T03:39:16.907Z,6.50
2018-12-06T03:40:17.052Z,6.20
2018-12-06T03:41:17.199Z,6.50
2018-12-06T03:42:17.343Z,6.50
2018-12-06T03:43:17.491Z,7.10
2018-12-06T03:44:17.744Z,6.30
2018-12-06T03:45:17.785Z,7.20
2018-12-06T03:46:17.935Z,7.70
2018-12-06T03:47:18.077Z,7.70
2018-12-06T03:48:18.224Z,8.10
2018-12-06T03:49:18.370Z,8.20
2018-12-06T03:50:18.515Z,7.60
2018-12-06T03:51:18.661Z,8.80
2018-12-06T03:52:18.804Z,7.90
2018-12-06T03:53:18.952Z,8.20
2018-12-06T03:54:19.101Z,9.50
2018-12-06T03:55:19.245Z,9.70
2018-12-06T03:56:19.393Z,8.80
2018-12-06T03:57:19.538Z,8.90
2018-12-06T03:58:19.684Z,9.10
2018-12-06T03:59:19.831Z,9.20
2018-12-06T04:00:19.976Z,9.50
2018-12-06T04:01:20.126Z,8.40
2018-12-06T04:02:20.268Z,9.20
2018-12-06T04:03:20.416Z,8.80
2018-12-06T04:04:20.560Z,8.00
2018-12-06T04:05:20.706Z,8.40
2018-12-06T04:06:20.853Z,8.80
2018-12-06T04:07:20.997Z,9.50
2018-12-06T04:08:21.149Z,8.50
2018-12-06T04:09:21.293Z,9.10
2018-12-06T04:10:21.438Z,8.90
2018-12-06T04:11:21.684Z,8.80
2018-12-06T04:12:21.735Z,7.50
2018-12-06T04:13:21.883Z,8.50
2018-12-06T04:14:22.026Z,8.20
2018-12-06T04:15:22.174Z,8.50
2018-12-06T04:16:22.319Z,8.40
2018-12-06T04:17:22.465Z,8.60
2018-12-06T04:18:22.613Z,8.10
2018-12-06T04:19:22.760Z,8.70
2018-12-06T04:20:22.906Z,7.90
2018-12-06T04:21:23.051Z,9.00
2018-12-06T04:22:23.199Z,8.90
2018-12-06T04:23:23.347Z,8.30
2018-12-06T04:24:23.493Z,8.70
2018-12-06T04:25:23.639Z,9.00
2018-12-06T04:26:23.786Z,8.10
2018-12-06T04:27:23.931Z,8.50
2018-12-06T04:28:24.082Z,8.50
2018-12-06T04:29:24.231Z,8.20
2018-12-06T04:30:24.373Z,7.90
2018-12-06T04:31:24.518Z,8.60
2018-12-06T04:32:24.663Z,8.20
2018-12-06T04:33:24.816Z,8.20
2018-12-06T04:34:24.959Z,8.30
2018-12-06T04:35:25.106Z,7.60
2018-12-06T04:36:25.266Z,7.20
2018-12-06T04:37:25.410Z,7.90
2018-12-06T04:38:25.555Z,7.00
2018-12-06T04:39:25.705Z,6.90
2018-12-06T04:40:25.854Z,7.20
2018-12-06T04:41:25.999Z,7.30
2018-12-06T04:42:26.147Z,7.70
2018-12-06T04:43:26.294Z,7.20
2018-12-06T04:44:26.442Z,7.10
2018-12-06T04:45:26.590Z,7.30
2018-12-06T04:46:26.734Z,7.20
2018-12-06T04:47:26.886Z,7.30
2018-12-06T04:48:27.033Z,7.30
2018-12-06T04:49:27.176Z,7.80
2018-12-06T04:50:27.323Z,6.80
2018-12-06T04:51:27.476Z,7.10
2018-12-06T04:52:27.619Z,7.80
2018-12-06T04:53:27.764Z,6.60
2018-12-06T04:54:27.910Z,7.70
2018-12-06T04:55:28.058Z,7.70
2018-12-06T04:56:28.206Z,7.60
2018-12-06T04:57:28.356Z,7.50
2018-12-06T04:58:28.499Z,7.70
2018-12-06T04:59:28.645Z,6.90
2018-12-06T05:00:28.792Z,7.90
2018-12-06T05:01:28.941Z,6.90
2018-12-06T05:02:29.086Z,7.10
2018-12-06T05:03:29.234Z,7.40
2018-12-06T05:04:29.380Z,8.20
2018-12-06T05:05:29.527Z,7.60
2018-12-06T05:06:29.672Z,8.20
2018-12-06T05:07:29.819Z,8.30
2018-12-06T05:08:29.966Z,7.90
2018-12-06T05:09:30.113Z,7.90
2018-12-06T05:10:30.260Z,7.70
2018-12-06T05:11:30.407Z,7.80
2018-12-06T05:12:30.554Z,8.60
2018-12-06T05:13:30.699Z,8.10
2018-12-06T05:14:30.846Z,8.60
2018-12-06T05:15:30.996Z,8.80
2018-12-06T05:16:31.140Z,7.70
2018-12-06T05:17:31.291Z,8.90
2018-12-06T05:18:31.439Z,8.90
2018-12-06T05:19:31.586Z,8.90
2018-12-06T05:20:31.732Z,8.20
2018-12-06T05:21:31.879Z,9.00
2018-12-06T05:22:32.022Z,8.40
2018-12-06T05:23:32.171Z,9.20
2018-12-06T05:24:32.315Z,8.70
2018-12-06T05:25:32.466Z,9.10
2018-12-06T05:26:32.611Z,8.20
2018-12-06T05:27:32.758Z,9.00
2018-12-06T05:28:32.907Z,8.70
2018-12-06T05:29:33.054Z,9.10
2018-12-06T05:30:33.199Z,9.20
2018-12-06T05:31:33.348Z,8.30
2018-12-06T05:32:33.493Z,8.30
2018-12-06T05:33:33.688Z,8.70
2018-12-06T05:34:33.823Z,8.80
2018-12-06T05:35:33.925Z,8.50
2018-12-06T05:36:34.075Z,9.10
2018-12-06T05:37:34.220Z,9.90
2018-12-06T05:38:34.369Z,8.20
2018-12-06T05:39:34.538Z,8.60
2018-12-06T05:40:34.649Z,9.40
2018-12-06T05:41:34.795Z,9.20
2018-12-06T05:42:34.943Z,8.90
2018-12-06T05:43:35.104Z,9.80
2018-12-06T05:44:35.231Z,8.80
2018-12-06T05:45:35.372Z,9.30
2018-12-06T05:46:35.517Z,8.50
2018-12-06T05:47:35.661Z,8.10
2018-12-06T05:48:35.809Z,8.30
2018-12-06T05:49:35.951Z,8.50
2018-12-06T05:50:36.101Z,8.70
2018-12-06T05:51:36.244Z,9.20
2018-12-06T05:52:36.390Z,9.00
2018-12-06T05:53:36.539Z,8.60
2018-12-06T05:54:36.686Z,8.90
2018-12-06T05:55:36.831Z,8.50
2018-12-06T05:56:36.980Z,9.20
2018-12-06T05:57:37.129Z,9.20
2018-12-06T05:58:37.271Z,9.70
2018-12-06T05:59:37.421Z,9.00
2018-12-06T06:00:37.569Z,8.70
2018-12-06T06:01:37.718Z,9.10
2018-12-06T06:02:37.865Z,8.50
2018-12-06T06:03:38.010Z,9.30
2018-12-06T06:04:38.155Z,9.20
2018-12-06T06:05:38.302Z,9.20
2018-12-06T06:06:38.450Z,9.10
2018-12-06T06:07:38.600Z,8.90
2018-12-06T06:08:38.744Z,8.60
2018-12-06T06:09:38.896Z,9.90
2018-12-06T06:10:39.036Z,8.90
2018-12-06T06:11:39.181Z,9.50
2018-12-06T06:12:39.332Z,9.60
2018-12-06T06:13:39.479Z,8.70
2018-12-06T06:14:39.624Z,8.80
2018-12-06T06:15:39.773Z,9.30
2018-12-06T06:16:39.918Z,8.90
2018-12-06T06:17:40.065Z,10.00
2018-12-06T06:18:40.210Z,9.80
2018-12-06T06:19:40.359Z,10.20
2018-12-06T06:20:40.504Z,10.00
2018-12-06T06:21:40.648Z,10.30
2018-12-06T06:22:40.793Z,9.50
2018-12-06T06:23:40.943Z,10.40
2018-12-06T06:24:41.088Z,9.90
2018-12-06T06:25:41.235Z,9.90
2018-12-06T06:26:41.383Z,9.50
2018-12-06T06:27:41.531Z,9.70
2018-12-06T06:28:41.678Z,9.30
2018-12-06T06:29:41.824Z,9.70
2018-12-06T06:30:41.970Z,9.80
2018-12-06T06:31:42.119Z,9.20
2018-12-06T06:32:42.260Z,9.80
2018-12-06T06:33:42.408Z,8.70
2018-12-06T06:34:42.575Z,9.50
2018-12-06T06:35:42.715Z,10.00
2018-12-06T06:36:42.852Z,9.60
2018-12-06T06:37:43.001Z,9.30
2018-12-06T06:38:43.149Z,9.20
2018-12-06T06:39:43.303Z,9.20
2018-12-06T06:40:43.441Z,9.10
2018-12-06T06:41:43.586Z,9.40
2018-12-06T06:42:43.734Z,9.10
2018-12-06T06:43:43.883Z,9.30
2018-12-06T06:44:44.028Z,8.50
2018-12-06T06:45:44.175Z,8.30
2018-12-06T06:46:44.328Z,9.00
2018-12-06T06:47:44.494Z,9.50
2018-12-06T06:48:44.609Z,8.70
2018-12-06T06:49:44.758Z,8.30
2018-12-06T06:50:44.903Z,9.50
2018-12-06T06:51:45.048Z,9.10
2018-12-06T06:52:45.197Z,9.10
2018-12-06T06:53:45.346Z,9.70
2018-12-06T06:54:45.494Z,9.10
2018-12-06T06:55:45.642Z,9.70
2018-12-06T06:56:45.790Z,9.10
2018-12-06T06:57:45.941Z,8.40
2018-12-06T06:58:46.089Z,8.80
2018-12-06T06:59:46.233Z,9.00
2018-12-06T07:00:46.381Z,9.30
2018-12-06T07:01:46.617Z,9.10
2018-12-06T07:02:46.675Z,8.50
2018-12-06T07:03:46.821Z,9.50
2018-12-06T07:04:46.969Z,9.80
2018-12-06T07:05:47.116Z,9.10
2018-12-06T07:06:47.264Z,9.10
2018-12-06T07:07:47.472Z,9.10
2018-12-06T07:08:47.612Z,9.30
2018-12-06T07:09:47.709Z,9.60
2018-12-06T07:10:47.868Z,9.70
2018-12-06T07:11:48.001Z,8.70
2018-12-06T07:12:48.154Z,9.80
2018-12-06T07:13:48.299Z,9.50
2018-12-06T07:14:48.443Z,9.40
2018-12-06T07:15:48.590Z,9.10
2018-12-06T07:16:48.740Z,9.20
2018-12-06T07:17:48.887Z,9.60
2018-12-06T07:18:49.035Z,9.90
2018-12-06T07:19:49.179Z,9.90
2018-12-06T07:20:49.330Z,9.60
2018-12-06T07:21:49.476Z,8.90
2018-12-06T07:22:49.623Z,9.40
2018-12-06T07:23:49.773Z,9.90
2018-12-06T07:24:49.922Z,10.20
2018-12-06T07:25:50.069Z,9.30
2018-12-06T07:26:50.219Z,9.50
2018-12-06T07:27:50.368Z,9.40
2018-12-06T07:28:50.518Z,8.90
2018-12-06T07:29:50.661Z,9.10
2018-12-06T07:30:50.808Z,9.80
2018-12-06T07:31:50.955Z,9.70
2018-12-06T07:32:51.105Z,9.80
2018-12-06T07:33:51.251Z,9.60
2018-12-06T07:34:51.401Z,8.90
2018-12-06T07:35:51.547Z,9.80
2018-12-06T07:36:51.698Z,8.50
2018-12-06T07:37:51.841Z,8.80
2018-12-06T07:38:51.990Z,9.50
2018-12-06T07:39:52.138Z,10.10
2018-12-06T07:40:52.286Z,8.90
2018-12-06T07:41:52.435Z,9.30
2018-12-06T07:42:52.585Z,9.60
2018-12-06T07:43:52.730Z,10.00
2018-12-06T07:44:52.874Z,10.40
2018-12-06T07:45:53.024Z,13.20
2018-12-06T07:46:53.168Z,12.50
2018-12-06T07:47:53.317Z,11.10
2018-12-06T07:48:53.466Z,10.50
2018-12-06T07:49:53.611Z,10.20
2018-12-06T07:50:53.760Z,10.30
2018-12-06T07:51:53.909Z,9.60
2018-12-06T07:52:54.057Z,10.10
2018-12-06T07:53:54.204Z,9.70
2018-12-06T07:54:54.354Z,10.10
2018-12-06T07:55:54.501Z,10.50
2018-12-06T07:56:54.651Z,9.50
2018-12-06T07:57:54.799Z,9.40
2018-12-06T07:58:54.946Z,9.90
2018-12-06T07:59:55.095Z,9.90
2018-12-06T08:00:55.239Z,9.40
2018-12-06T08:01:55.386Z,9.80
2018-12-06T08:02:55.532Z,10.10
2018-12-06T08:03:57.155Z,9.70
2018-12-06T08:04:55.827Z,10.30
2018-12-06T08:05:55.974Z,9.80
2018-12-06T08:06:56.122Z,10.30
2018-12-06T08:07:56.269Z,9.60
2018-12-06T08:08:56.418Z,9.90
2018-12-06T08:09:56.560Z,9.80
2018-12-06T08:10:56.713Z,9.90
2018-12-06T08:11:56.857Z,9.60
2018-12-06T08:12:57.005Z,9.30
2018-12-06T08:13:57.153Z,9.30
2018-12-06T08:14:57.303Z,8.90
2018-12-06T08:15:57.450Z,9.00
2018-12-06T08:16:57.600Z,8.90
2018-12-06T08:17:57.776Z,9.00
2018-12-06T08:18:57.894Z,8.90
2018-12-06T08:19:58.039Z,8.80
2018-12-06T08:20:58.188Z,8.80
2018-12-06T08:21:58.338Z,8.80
2018-12-06T08:22:58.485Z,9.00
2018-12-06T08:23:58.634Z,9.10
2018-12-06T08:24:58.780Z,9.10
2018-12-06T08:25:58.925Z,10.20
2018-12-06T08:26:59.072Z,9.50
2018-12-06T08:27:59.221Z,9.30
2018-12-06T08:28:59.369Z,8.70
2018-12-06T08:29:59.517Z,9.20
2018-12-06T08:30:59.665Z,8.60
2018-12-06T08:31:59.815Z,9.10
2018-12-06T08:32:59.963Z,8.30
2018-12-06T08:34:06.198Z,8.70
2018-12-06T08:35:00.261Z,9.40
2018-12-06T08:36:00.408Z,8.70
2018-12-06T08:37:00.557Z,9.00
2018-12-06T08:38:00.704Z,10.00
2018-12-06T08:39:00.852Z,9.70
2018-12-06T08:40:01.002Z,9.30
2018-12-06T08:41:01.149Z,9.70
2018-12-06T08:42:01.300Z,9.70
2018-12-06T08:43:01.444Z,9.30
2018-12-06T08:44:01.593Z,10.20
2018-12-06T08:45:01.741Z,9.60
2018-12-06T08:46:01.890Z,9.30
2018-12-06T08:47:02.037Z,9.30
2018-12-06T08:48:02.191Z,9.00
2018-12-06T08:49:03.146Z,9.50
2018-12-06T08:50:02.486Z,9.30
2018-12-06T08:51:02.634Z,9.00
2018-12-06T08:52:02.780Z,8.60
2018-12-06T08:53:02.926Z,8.90
2018-12-06T08:54:03.074Z,8.90
2018-12-06T08:55:03.221Z,7.80
2018-12-06T08:56:03.370Z,8.20
2018-12-06T08:57:03.517Z,9.30
2018-12-06T08:58:03.667Z,8.80
2018-12-06T08:59:03.815Z,7.60
2018-12-06T09:00:03.959Z,8.30
2018-12-06T09:01:04.108Z,8.50
2018-12-06T09:02:04.255Z,8.40
2018-12-06T09:03:04.403Z,8.30
2018-12-06T09:04:04.549Z,8.40
2018-12-06T09:05:04.700Z,8.00
2018-12-06T09:06:04.847Z,7.90
2018-12-06T09:07:04.995Z,8.40
2018-12-06T09:08:05.143Z,7.90
2018-12-06T09:09:05.296Z,8.00
2018-12-06T09:10:05.443Z,8.40
2018-12-06T09:11:05.595Z,8.40
2018-12-06T09:12:05.740Z,8.60
2018-12-06T09:13:05.887Z,8.60
2018-12-06T09:14:06.036Z,8.20
2018-12-06T09:15:06.184Z,8.20
2018-12-06T09:16:06.334Z,8.30
2018-12-06T09:17:06.477Z,8.80
2018-12-06T09:18:06.628Z,8.80
2018-12-06T09:19:06.776Z,9.20
2018-12-06T09:20:06.927Z,9.40
2018-12-06T09:21:07.071Z,8.80
2018-12-06T09:22:07.219Z,9.20
2018-12-06T09:23:07.369Z,9.10
2018-12-06T09:24:07.518Z,8.70
2018-12-06T09:25:07.665Z,8.60
2018-12-06T09:26:07.812Z,8.10
2018-12-06T09:27:07.959Z,7.90
2018-12-06T09:28:08.108Z,8.50
2018-12-06T09:29:08.258Z,8.10
2018-12-06T09:30:08.405Z,8.30
2018-12-06T09:31:08.556Z,9.10
2018-12-06T09:32:08.701Z,8.60
2018-12-06T09:33:08.849Z,8.50
2018-12-06T09:34:08.999Z,8.30
2018-12-06T09:35:09.144Z,8.50
2018-12-06T09:36:09.292Z,9.50
2018-12-06T09:37:09.441Z,8.60
2018-12-06T09:38:09.594Z,9.00
2018-12-06T09:39:09.740Z,7.70
2018-12-06T09:40:09.886Z,8.10
2018-12-06T09:41:10.035Z,8.00
2018-12-06T09:42:10.181Z,8.50
2018-12-06T09:43:10.330Z,9.00
2018-12-06T09:44:10.481Z,8.20
2018-12-06T09:45:10.632Z,8.40
2018-12-06T09:46:10.778Z,8.10
2018-12-06T09:47:10.927Z,8.90
2018-12-06T09:48:11.074Z,8.50
2018-12-06T09:49:11.226Z,8.00
2018-12-06T09:50:11.374Z,8.20
2018-12-06T09:51:11.517Z,7.60
2018-12-06T09:52:11.669Z,7.80
2018-12-06T09:53:11.817Z,7.00
2018-12-06T09:54:11.967Z,7.50
2018-12-06T09:55:12.117Z,7.60
2018-12-06T09:56:12.263Z,7.70
2018-12-06T09:57:12.411Z,7.40
2018-12-06T09:58:12.562Z,7.90
2018-12-06T09:59:12.709Z,7.70
2018-12-06T10:00:12.858Z,7.00
2018-12-06T10:01:13.004Z,7.20
2018-12-06T10:02:13.155Z,6.70
2018-12-06T10:03:13.301Z,7.20
2018-12-06T10:04:13.449Z,7.60
2018-12-06T10:05:13.601Z,7.80
2018-12-06T10:06:13.750Z,7.30
2018-12-06T10:07:13.898Z,7.00
2018-12-06T10:08:14.050Z,7.10
2018-12-06T10:09:14.195Z,7.70
2018-12-06T10:10:14.345Z,6.70
2018-12-06T10:11:14.493Z,6.50
2018-12-06T10:12:14.630Z,7.30
2018-12-06T10:13:14.817Z,7.50
2018-12-06T10:14:14.969Z,6.90
2018-12-06T10:15:15.113Z,6.90
2018-12-06T10:16:15.261Z,6.80
2018-12-06T10:17:15.407Z,7.10
2018-12-06T10:18:15.557Z,7.20
2018-12-06T10:19:15.702Z,7.30
2018-12-06T10:20:15.851Z,6.70
2018-12-06T10:21:16.001Z,6.60
2018-12-06T10:22:16.151Z,6.70
2018-12-06T10:23:16.300Z,6.50
2018-12-06T10:24:16.453Z,6.60
2018-12-06T10:25:16.600Z,6.90
2018-12-06T10:26:16.743Z,6.70
2018-12-06T10:27:16.889Z,6.90
2018-12-06T10:28:17.038Z,6.60
2018-12-06T10:29:17.190Z,7.00
2018-12-06T10:30:17.340Z,7.10
2018-12-06T10:31:17.491Z,6.90
2018-12-06T10:32:17.649Z,6.70
2018-12-06T10:33:17.796Z,7.00
2018-12-06T10:34:17.950Z,7.30
2018-12-06T10:35:18.093Z,6.70
2018-12-06T10:36:18.244Z,6.60
2018-12-06T10:37:18.392Z,6.20
2018-12-06T10:38:18.541Z,6.60
2018-12-06T10:39:18.695Z,7.30
2018-12-06T10:40:18.847Z,6.00
2018-12-06T10:41:18.995Z,6.10
2018-12-06T10:42:19.147Z,6.30
2018-12-06T10:43:19.296Z,5.90
2018-12-06T10:44:19.443Z,6.40
2018-12-06T10:45:19.596Z,5.90
2018-12-06T10:46:19.744Z,6.70
2018-12-06T10:47:19.894Z,6.00
2018-12-06T10:48:20.042Z,6.10
2018-12-06T10:49:20.191Z,5.70
2018-12-06T10:50:20.343Z,5.60
2018-12-06T10:51:20.491Z,6.20
2018-12-06T10:52:20.643Z,6.10
2018-12-06T10:53:20.794Z,5.30
2018-12-06T10:54:20.942Z,5.50
2018-12-06T10:55:21.090Z,5.60
2018-12-06T10:56:21.240Z,5.20
2018-12-06T10:57:21.388Z,5.50
2018-12-06T10:58:21.537Z,5.50
2018-12-06T10:59:21.685Z,5.70
2018-12-06T11:00:21.834Z,5.40
2018-12-06T11:01:21.992Z,5.60
2018-12-06T11:02:22.128Z,5.40
2018-12-06T11:03:22.275Z,5.40
2018-12-06T11:04:22.856Z,5.60
2018-12-06T11:05:22.578Z,5.60
2018-12-06T11:06:22.729Z,5.30
2018-12-06T11:07:22.876Z,6.00
2018-12-06T11:08:23.024Z,5.50
2018-12-06T11:09:23.174Z,5.30
2018-12-06T11:10:23.321Z,5.40
2018-12-06T11:11:23.469Z,5.90
2018-12-06T11:12:23.616Z,5.40
2018-12-06T11:13:23.768Z,5.10
2018-12-06T11:14:23.921Z,5.00
2018-12-06T11:15:24.066Z,4.70
2018-12-06T11:16:24.216Z,5.10
2018-12-06T11:17:24.367Z,5.20
2018-12-06T11:18:24.514Z,5.40
2018-12-06T11:19:24.666Z,5.10
2018-12-06T11:20:24.814Z,5.00
2018-12-06T11:21:24.963Z,5.10
2018-12-06T11:22:25.125Z,5.10
2018-12-06T11:23:25.260Z,5.30
2018-12-06T11:24:25.412Z,5.70
2018-12-06T11:25:25.562Z,5.40
2018-12-06T11:26:25.714Z,4.70
2018-12-06T11:27:25.865Z,5.10
2018-12-06T11:28:26.010Z,4.60
2018-12-06T11:29:26.155Z,5.10
2018-12-06T11:30:26.311Z,4.70
2018-12-06T11:31:26.454Z,4.90
2018-12-06T11:32:26.603Z,4.90
2018-12-06T11:33:26.758Z,5.40
2018-12-06T11:34:26.901Z,5.10
2018-12-06T11:35:27.049Z,4.60
2018-12-06T11:36:27.197Z,4.80
2018-12-06T11:37:27.347Z,4.60
2018-12-06T11:38:27.495Z,5.20
2018-12-06T11:39:27.647Z,5.50
2018-12-06T11:40:27.791Z,5.20
2018-12-06T11:41:27.940Z,5.60
2018-12-06T11:42:28.088Z,5.60
2018-12-06T11:43:28.233Z,5.00
2018-12-06T11:44:28.382Z,4.70
2018-12-06T11:45:28.532Z,4.90
2018-12-06T11:46:28.679Z,5.10
2018-12-06T11:47:28.827Z,5.50
2018-12-06T11:48:28.977Z,4.80
2018-12-06T11:49:29.137Z,5.40
2018-12-06T11:50:29.287Z,4.90
2018-12-06T11:51:29.435Z,4.80
2018-12-06T11:52:29.582Z,4.70
2018-12-06T11:53:29.729Z,4.30
2018-12-06T11:54:29.880Z,4.70
2018-12-06T11:55:30.098Z,4.70
2018-12-06T11:56:30.178Z,4.50
2018-12-06T11:57:30.327Z,4.20
2018-12-06T11:58:30.489Z,4.80
2018-12-06T11:59:30.622Z,4.90
2018-12-06T12:00:30.771Z,4.60
2018-12-06T12:01:30.938Z,4.70
2018-12-06T12:02:31.070Z,4.90
2018-12-06T12:03:31.224Z,5.40
2018-12-06T12:04:31.374Z,4.60
2018-12-06T12:05:31.520Z,4.30
2018-12-06T12:06:31.668Z,4.70
2018-12-06T12:07:31.816Z,4.90
2018-12-06T12:08:31.968Z,4.90
2018-12-06T12:09:32.128Z,4.50
2018-12-06T12:10:32.274Z,4.70
2018-12-06T12:11:32.432Z,4.90
2018-12-06T12:12:32.585Z,4.30
2018-12-06T12:13:32.742Z,4.30
2018-12-06T12:14:32.901Z,4.50
2018-12-06T12:15:33.062Z,4.50
2018-12-06T12:16:33.210Z,4.80
2018-12-06T12:17:33.367Z,4.20
2018-12-06T12:18:33.514Z,4.30
2018-12-06T12:19:33.662Z,4.90
2018-12-06T12:20:33.838Z,4.20
2018-12-06T12:21:33.992Z,4.00
2018-12-06T12:22:34.143Z,4.90
2018-12-06T12:23:34.295Z,4.10
2018-12-06T12:24:34.449Z,4.30
2018-12-06T12:25:34.610Z,4.00
2018-12-06T12:26:34.776Z,4.30
2018-12-06T12:27:34.910Z,4.10
2018-12-06T12:28:35.075Z,4.10
2018-12-06T12:29:35.225Z,3.90
2018-12-06T12:30:35.397Z,4.50
2018-12-06T12:31:35.546Z,4.50
2018-12-06T12:32:35.695Z,4.90
2018-12-06T12:33:35.854Z,4.50
2018-12-06T12:34:36.036Z,4.50
2018-12-06T12:35:36.207Z,4.10
2018-12-06T12:36:36.379Z,4.80
2018-12-06T12:37:36.539Z,4.30
2018-12-06T12:38:36.756Z,4.50
2018-12-06T12:39:36.910Z,5.00
2018-12-06T12:40:36.975Z,5.10
2018-12-06T12:41:37.167Z,4.50
2018-12-06T12:42:37.371Z,4.80
2018-12-06T12:43:37.557Z,4.30
2018-12-06T12:44:37.713Z,4.50
2018-12-06T12:45:37.866Z,5.40
2018-12-06T12:46:38.040Z,4.90
2018-12-06T12:47:38.206Z,4.00
2018-12-06T12:48:38.371Z,4.40
2018-12-06T12:49:38.520Z,4.70
2018-12-06T12:50:38.678Z,4.00
2018-12-06T12:51:38.902Z,4.50
2018-12-06T12:52:39.023Z,4.80
2018-12-06T12:53:39.143Z,5.20
2018-12-06T12:54:39.269Z,4.70
2018-12-06T12:55:39.306Z,4.90
2018-12-06T12:56:39.470Z,4.60
2018-12-06T12:57:39.708Z,5.20
2018-12-06T12:58:39.870Z,5.10
2018-12-06T12:59:40.022Z,5.00
2018-12-06T13:00:40.188Z,5.00
2018-12-06T13:01:40.244Z,4.60
2018-12-06T13:02:40.530Z,5.10
2018-12-06T13:03:40.701Z,4.60
2018-12-06T13:04:40.814Z,4.70
2018-12-06T13:05:40.967Z,4.70
2018-12-06T13:06:41.067Z,4.80
2018-12-06T13:07:41.223Z,4.30
2018-12-06T13:08:41.327Z,4.10
2018-12-06T13:09:41.452Z,4.40
2018-12-06T13:10:41.560Z,4.50
2018-12-06T13:11:41.726Z,4.10
2018-12-06T13:12:42.525Z,4.00
2018-12-06T13:13:42.066Z,4.30
2018-12-06T13:14:42.189Z,4.30
2018-12-06T13:15:42.311Z,4.00
2018-12-06T13:16:42.442Z,4.00
2018-12-06T13:17:42.586Z,4.70
2018-12-06T13:18:42.761Z,4.30
2018-12-06T13:19:42.919Z,4.70